Flight Track Log - Related Links

Times and Time Zones

All times are in EDT time to prevent confusion due to time zone crossing. See the SKW6330 flight status page for this flight to view local times or setup timezone preferences in your user account.

Time Position Orientation Groundspeed Altitude Reporting Facility
EDT Latitude Longitude Course Direction KTS MPH feet Rate Location/Type
Thu 08:05:03 PM 33.9333 -118.4833 335° Northwest 181 208 2,300  Level Southern California TRACON
Thu 08:06:03 PM 33.9167 -118.5500 253° West 183 211 3,900 1,500 Climbing Southern California TRACON
Thu 08:06:19 PM 33.9178 -118.5592 278° West 184 212 4,200 1,308 Climbing Los Angeles Center
Thu 08:07:00 PM 34.2116 -118.5475 338° Northwest  Level FlightAware Approximate
Thu 08:07:21 PM 33.9114 -118.6197 263° West 190 219 5,600  Level Los Angeles Center
Thu 08:08:00 PM 34.2830 -118.5832 338° Northwest  Level FlightAware Approximate
Thu 08:08:23 PM 33.9472 -118.6631 315° West 189 217 6,900  Level Los Angeles Center
Thu 08:09:00 PM 34.3559 -118.6217 335° Northwest  Level FlightAware Approximate
Thu 08:09:25 PM 34.0072 -118.6514 North 217 250 7,000  Level Los Angeles Center
Thu 08:10:00 PM 34.4157 -118.6550 335° Northwest  Level FlightAware Approximate
Thu 08:10:27 PM 34.0739 -118.6367 10° North 240 276 7,000  Level Los Angeles Center
Thu 08:11:29 PM 34.1328 -118.6239 10° North 241 277 8,200 1,306 Climbing Los Angeles Center
Thu 08:12:31 PM 34.2044 -118.6158 North 226 260 9,700 1,403 Climbing Los Angeles Center
Thu 08:13:33 PM 34.2625 -118.6436 338° Northwest 224 258 11,100 1,104 Climbing Los Angeles Center
Thu 08:14:36 PM 34.3175 -118.6692 339° North 215 247 12,000 432 Climbing Los Angeles Center
Thu 08:15:38 PM 34.3819 -118.6928 343° North 236 272 12,000  Level Los Angeles Center
Thu 08:16:40 PM 34.4500 -118.7192 342° North 257 296 12,000 629 Level Los Angeles Center
Thu 08:17:42 PM 34.5267 -118.7506 341° North 235 270 13,300 1,065 Climbing Los Angeles Center
Thu 08:18:44 PM 34.5861 -118.7733 342° North 224 258 14,200 919 Climbing Los Angeles Center
Thu 08:19:46 PM 34.6431 -118.7997 339° North 221 254 15,200 816 Climbing Los Angeles Center
Thu 08:20:49 PM 34.7036 -118.8183 346° North 223 257 15,900 672 Climbing Los Angeles Center
Thu 08:21:51 PM 34.7661 -118.8267 354° North 225 259 16,600 823 Climbing Los Angeles Center
Thu 08:22:53 PM 34.8428 -118.8397 352° North 231 266 17,600 672 Climbing Los Angeles Center
Thu 08:23:56 PM 34.9028 -118.8497 352° North 225 259 18,000 480 Climbing Los Angeles Center
Thu 08:24:58 PM 34.9650 -118.8600 352° North 226 260 18,600 581 Climbing Los Angeles Center
Thu 08:26:00 PM 35.0314 -118.8703 353° North 237 273 19,200 581 Climbing Los Angeles Center
Thu 08:27:02 PM 35.0819 -118.8797 351° North 233 268 19,800 720 Climbing Los Angeles Center
Thu 08:28:05 PM 35.1719 -118.8942 353° North 231 266 20,700 720 Climbing Los Angeles Center
Thu 08:29:07 PM 35.2364 -118.9050 352° North 235 270 21,300 576 Climbing Los Angeles Center
Thu 08:30:10 PM 35.2994 -118.9164 352° North 230 265 21,900 336 Climbing Los Angeles Center
Thu 08:31:12 PM 35.3633 -118.9267 353° North 231 266 22,000 48 Climbing Los Angeles Center
Thu 08:32:14 PM 35.4322 -118.9406 351° North 246 283 22,000  Level Los Angeles Center
Thu 08:33:17 PM 35.5142 -118.9525 353° North 249 287 22,000  Level Los Angeles Center
Thu 08:34:19 PM 35.5828 -118.9644 352° North 249 287 22,000 -290 Level Los Angeles Center
Thu 08:35:21 PM 35.6522 -118.9769 352° North 252 290 21,400 -706 Descending Los Angeles Center
Thu 08:36:01 PM 35.6950 -118.9839 352° North 255 293 20,800 -1,059 Descending Oakland Center
Thu 08:37:03 PM 35.7883 -119.0008 352° North 274 315 19,600 -1,073 Descending Oakland Center
Thu 08:38:04 PM 35.8650 -119.0150 351° North 279 321 18,600 -984 Descending Oakland Center
Thu 08:39:05 PM 35.9433 -119.0358 348° North 286 329 17,600 -976 Descending Oakland Center
Thu 08:40:07 PM 36.0164 -119.0719 338° Northwest 287 330 16,600 -1,171 Descending Oakland Center
Thu 08:41:08 PM 36.0908 -119.1083 338° Northwest 288 331 15,200 -1,220 Descending Oakland Center
Thu 08:42:10 PM 36.1681 -119.1472 338° Northwest 294 338 14,100 -1,024 Descending Oakland Center
Thu 08:43:11 PM 36.2414 -119.1775 342° North 288 331 13,100 -1,317 Descending Oakland Center
Thu 08:44:13 PM 36.3175 -119.2128 340° North 294 338 11,400 -1,805 Descending Oakland Center
Thu 08:45:14 PM 36.4078 -119.2542 340° North 288 331 9,400 -1,869 Descending Oakland Center
Thu 08:46:15 PM 36.4819 -119.2911 338° Northwest 288 331 7,600 -1,610 Descending Oakland Center
Thu 08:47:17 PM 36.5478 -119.3219 339° North 254 292 6,100 -1,561 Descending Oakland Center
Thu 08:48:18 PM 36.5844 -119.3836 307° West 224 258 4,400 -1,073 Descending Oakland Center
Thu 08:49:20 PM 36.6186 -119.4497 303° West 226 260 3,900 -585 Descending Oakland Center
Thu 08:50:21 PM 36.6486 -119.5078 303° West 206 237 3,200 -689 Descending Oakland Center

Login

Don't have an account? Register now (free) for customized features, flight alerts, and more!